Time;durP1;ratioP1;P1;durP2;ratioP2;P2;SDS_P1;SDS_P2;PMS_P1;PMS_P2;Temp;Humidity;BMP_temperature;BMP_pressure;BME280_temperature;BME280_humidity;BME280_pressure;Samples;Min_cycle;Max_cycle;Signal;HPM_P1;HPM_P2
2020/12/15 07:57:15;;;;;;;10.55;5.45;;;15.40;99.90;;;;;;5918577;23;20039;31
2020/12/15 07:59:43;;;;;;;9.43;5.78;;;15.50;99.90;;;;;;4874539;29;20111;-63
2020/12/15 08:02:17;;;;;;;13.60;7.53;;;15.50;99.90;;;;;;4877108;29;20405;-63
2020/12/15 08:04:43;;;;;;;9.10;5.07;;;15.20;99.90;;;;;;4877050;29;20037;-62
2020/12/15 08:07:11;;;;;;;13.52;6.57;;;15.30;99.90;;;;;;4877016;29;20037;-62
2020/12/15 08:09:37;;;;;;;12.25;5.93;;;15.40;99.90;;;;;;4876676;29;20489;-62
2020/12/15 08:12:03;;;;;;;9.88;5.82;;;15.50;99.90;;;;;;4877279;29;20041;-62
2020/12/15 08:14:29;;;;;;;8.68;4.20;;;15.70;99.90;;;;;;4878367;29;20056;-62
2020/12/15 08:16:56;;;;;;;7.13;4.20;;;15.70;99.90;;;;;;4880604;29;20581;-62
2020/12/15 08:19:25;;;;;;;7.28;4.47;;;15.80;99.90;;;;;;4880533;29;20433;-62
2020/12/15 08:21:51;;;;;;;8.30;3.72;;;16.10;99.90;;;;;;4880494;29;20492;-62
2020/12/15 08:24:26;;;;;;;8.50;5.57;;;17.20;99.90;;;;;;4879773;29;20033;-70
2020/12/15 08:26:52;;;;;;;10.20;6.13;;;16.70;99.90;;;;;;4848961;29;20041;-69
2020/12/15 08:29:20;;;;;;;10.13;6.15;;;14.50;99.90;;;;;;5130220;23;20502;-72
2020/12/15 08:31:46;;;;;;;12.80;5.85;;;13.40;99.90;;;;;;4925510;29;20028;-69
2020/12/15 08:34:22;;;;;;;12.38;6.32;;;12.90;99.90;;;;;;4935244;29;20070;-73
2020/12/15 08:36:50;;;;;;;9.45;5.60;;;12.40;99.90;;;;;;4918637;29;20032;-69
2020/12/15 08:39:22;;;;;;;9.70;6.07;;;12.30;99.90;;;;;;4929746;29;20441;-68
2020/12/15 08:41:55;;;;;;;9.57;5.43;;;12.30;99.90;;;;;;4925244;29;20028;-68
2020/12/15 08:44:22;;;;;;;11.32;7.38;;;12.10;99.90;;;;;;4919164;29;20043;-71
2020/12/15 08:46:53;;;;;;;13.07;7.20;;;12.00;99.90;;;;;;4932259;29;20042;-69
2020/12/15 08:49:19;;;;;;;11.75;6.47;;;11.90;99.90;;;;;;4924372;29;20035;-68
2020/12/15 08:51:46;;;;;;;13.60;7.45;;;11.90;99.90;;;;;;4931027;29;20028;-71
2020/12/15 08:54:12;;;;;;;14.75;7.18;;;11.80;99.90;;;;;;4921788;29;20028;-70
2020/12/15 08:56:38;;;;;;;11.85;7.20;;;11.70;99.90;;;;;;4932389;29;20464;-68
2020/12/15 08:59:12;;;;;;;14.95;7.80;;;11.70;99.90;;;;;;4928020;29;20040;-67
2020/12/15 09:01:38;;;;;;;13.10;6.82;;;11.60;99.90;;;;;;4926459;29;20098;-71
2020/12/15 09:04:04;;;;;;;13.05;7.47;;;11.70;99.90;;;;;;4922695;29;20032;-71
2020/12/15 09:06:34;;;;;;;14.77;7.18;;;11.60;99.90;;;;;;4931879;29;20040;-69
2020/12/15 09:09:00;;;;;;;12.30;7.00;;;11.60;99.90;;;;;;4921273;29;20050;-73
2020/12/15 09:11:26;;;;;;;15.02;6.78;;;11.60;99.90;;;;;;4927567;29;20031;-68
2020/12/15 09:14:00;;;;;;;12.73;6.82;;;11.60;99.90;;;;;;4927577;29;20388;-68
2020/12/15 09:16:39;;;;;;;;;;;11.70;99.90;;;;;;4926722;29;20027;-69
2020/12/15 09:19:18;;;;;;;14.98;7.50;;;11.80;99.90;;;;;;4930228;29;20569;-68
2020/12/15 09:21:57;;;;;;;13.18;6.85;;;11.70;99.90;;;;;;4926395;29;20070;-69
2020/12/15 09:24:23;;;;;;;13.45;7.22;;;11.60;99.90;;;;;;4923205;29;20083;-69
2020/12/15 09:26:48;;;;;;;15.73;8.07;;;11.60;99.90;;;;;;4948167;29;20036;-71
2020/12/15 09:29:14;;;;;;;12.98;7.65;;;11.60;99.90;;;;;;4928622;29;20040;-69
2020/12/15 09:31:40;;;;;;;18.17;8.18;;;11.50;99.90;;;;;;4925778;29;20444;-68
2020/12/15 09:34:06;;;;;;;11.10;7.47;;;11.70;99.90;;;;;;4922873;29;20083;-68
2020/12/15 09:36:32;;;;;;;15.60;7.47;;;11.80;99.90;;;;;;4931241;29;20034;-68
2020/12/15 09:38:58;;;;;;;11.95;7.57;;;11.70;99.90;;;;;;4920405;29;20027;-68
2020/12/15 09:41:24;;;;;;;14.13;7.75;;;11.70;99.90;;;;;;4927114;29;20035;-68
2020/12/15 09:43:50;;;;;;;13.43;8.05;;;11.80;99.90;;;;;;4926826;29;20551;-72
2020/12/15 09:46:15;;;;;;;14.30;8.70;;;11.70;99.90;;;;;;4921608;29;20075;-68
2020/12/15 09:48:41;;;;;;;13.57;7.95;;;11.60;99.90;;;;;;4932196;29;20477;-68
2020/12/15 09:51:11;;;;;;;14.10;7.95;;;11.70;99.90;;;;;;4904100;29;20028;-69
2020/12/15 09:53:36;;;;;;;13.05;7.47;;;11.70;99.90;;;;;;4925659;29;20060;-69
2020/12/15 09:56:02;;;;;;;11.98;7.13;;;11.70;99.90;;;;;;4928852;29;20082;-69
2020/12/15 09:58:28;;;;;;;14.05;8.18;;;11.70;99.90;;;;;;4919246;29;20405;-69
2020/12/15 10:00:54;;;;;;;12.70;7.88;;;11.80;99.90;;;;;;4934313;29;20069;-67
2020/12/15 10:03:20;;;;;;;13.38;8.45;;;11.70;99.90;;;;;;4928761;29;20377;-69
2020/12/15 10:05:46;;;;;;;13.35;8.20;;;11.70;99.90;;;;;;4934362;29;20027;-68
2020/12/15 10:08:12;;;;;;;13.43;8.60;;;11.70;99.90;;;;;;4920363;29;20087;-69
2020/12/15 10:10:37;;;;;;;13.52;8.05;;;11.70;99.90;;;;;;4930826;29;20115;-70
2020/12/15 10:13:03;;;;;;;11.65;7.63;;;11.70;99.90;;;;;;4920468;29;20336;-68
2020/12/15 10:15:29;;;;;;;16.55;7.85;;;11.90;99.90;;;;;;4925904;29;20032;-69
2020/12/15 10:17:55;;;;;;;11.68;8.00;;;11.90;99.90;;;;;;4919425;29;20048;-71
2020/12/15 10:20:21;;;;;;;16.48;7.75;;;11.90;99.90;;;;;;4930361;29;20036;-68
2020/12/15 10:22:47;;;;;;;13.43;7.45;;;11.90;99.90;;;;;;4918528;29;20775;-69
2020/12/15 10:25:13;;;;;;;13.75;7.15;;;12.10;99.90;;;;;;4930216;29;20042;-67
2020/12/15 10:27:38;;;;;;;14.90;7.78;;;12.30;99.90;;;;;;4924775;29;20478;-70
2020/12/15 10:30:04;;;;;;;15.05;7.30;;;12.30;99.90;;;;;;4914832;29;20135;-70
2020/12/15 10:32:30;;;;;;;15.15;7.63;;;12.60;99.90;;;;;;4930853;29;20032;-70
2020/12/15 10:34:56;;;;;;;12.93;6.82;;;12.60;99.90;;;;;;4923017;29;20535;-72
2020/12/15 10:37:24;;;;;;;14.77;6.90;;;12.60;99.90;;;;;;4922127;29;20388;-72
2020/12/15 10:39:52;;;;;;;11.13;6.72;;;12.60;99.90;;;;;;4922794;29;20412;-71
2020/12/15 10:42:18;;;;;;;12.68;6.47;;;12.60;99.90;;;;;;4929920;29;20032;-69
2020/12/15 10:44:44;;;;;;;12.43;6.05;;;12.60;99.90;;;;;;4917909;29;20043;-70
2020/12/15 10:47:10;;;;;;;11.45;5.93;;;12.60;99.90;;;;;;4927935;29;20488;-69
2020/12/15 10:49:36;;;;;;;11.10;5.80;;;12.60;99.90;;;;;;4924131;29;20386;-72
2020/12/15 10:52:02;;;;;;;11.88;6.32;;;12.40;99.90;;;;;;4921359;29;20032;-69
2020/12/15 10:54:28;;;;;;;12.13;6.28;;;12.30;99.90;;;;;;4930194;29;20043;-70
2020/12/15 10:56:57;;;;;;;11.65;6.18;;;12.30;99.90;;;;;;4929228;29;20039;-71
2020/12/15 10:59:23;;;;;;;13.60;5.93;;;12.20;99.90;;;;;;4926463;29;20032;-69
2020/12/15 11:01:52;;;;;;;11.50;5.55;;;12.30;99.90;;;;;;4925572;29;20111;-71
2020/12/15 11:04:19;;;;;;;11.63;5.57;;;12.30;99.90;;;;;;4919826;29;20036;-71
2020/12/15 11:06:47;;;;;;;12.40;5.93;;;12.30;99.90;;;;;;4930684;29;20082;-69
2020/12/15 11:09:14;;;;;;;10.02;5.80;;;12.20;99.90;;;;;;4921536;29;20032;-71
2020/12/15 11:11:44;;;;;;;12.82;5.82;;;12.30;99.90;;;;;;4923924;29;20103;-73
2020/12/15 11:14:10;;;;;;;13.20;6.55;;;12.20;99.90;;;;;;4928232;29;20032;-70
2020/12/15 11:16:35;;;;;;;12.13;5.80;;;12.30;99.90;;;;;;4928772;29;20419;-69
2020/12/15 11:19:03;;;;;;;12.10;5.90;;;12.50;99.90;;;;;;4928922;29;20032;-72
2020/12/15 11:21:28;;;;;;;14.57;6.28;;;12.50;99.90;;;;;;4923163;29;20576;-70
2020/12/15 11:23:54;;;;;;;12.88;5.95;;;12.70;99.90;;;;;;4921894;29;20115;-70
2020/12/15 11:26:19;;;;;;;11.10;6.22;;;12.80;99.90;;;;;;4929529;29;20032;-70
2020/12/15 11:28:45;;;;;;;12.23;6.15;;;12.80;99.90;;;;;;4926410;29;20399;-70
2020/12/15 11:31:12;;;;;;;13.88;6.32;;;12.80;99.90;;;;;;4920201;29;20079;-69
2020/12/15 11:33:39;;;;;;;11.50;5.90;;;13.00;99.90;;;;;;4933105;29;20035;-68
2020/12/15 11:36:05;;;;;;;11.68;5.88;;;13.20;99.90;;;;;;4933191;29;20391;-71
2020/12/15 11:38:31;;;;;;;12.65;6.05;;;13.30;99.90;;;;;;4932789;29;20431;-70
2020/12/15 11:40:57;;;;;;;12.60;6.10;;;13.00;99.90;;;;;;4918024;29;20110;-69
2020/12/15 11:43:22;;;;;;;13.60;5.90;;;12.90;99.90;;;;;;4925674;29;20028;-68
2020/12/15 11:45:49;;;;;;;12.85;5.20;;;12.90;99.90;;;;;;4924987;29;20122;-71
2020/12/15 11:48:15;;;;;;;11.45;5.28;;;13.20;99.90;;;;;;4933485;29;20487;-69
2020/12/15 11:50:42;;;;;;;14.75;5.63;;;13.40;99.90;;;;;;4933735;29;20111;-68
2020/12/15 11:53:08;;;;;;;13.38;5.32;;;13.30;99.90;;;;;;4937227;29;20388;-69
2020/12/15 11:55:34;;;;;;;13.15;5.28;;;13.50;99.90;;;;;;4936755;29;20065;-71
2020/12/15 11:58:02;;;;;;;14.98;8.05;;;13.90;99.90;;;;;;4936975;29;20024;-71
2020/12/15 12:00:28;;;;;;;12.43;4.55;;;14.00;99.90;;;;;;4921492;29;20020;-69
2020/12/15 12:02:54;;;;;;;13.18;4.93;;;14.10;99.90;;;;;;4919258;29;20035;-71
2020/12/15 12:05:20;;;;;;;10.30;4.50;;;14.20;99.90;;;;;;4918953;29;20032;-70
2020/12/15 12:07:46;;;;;;;14.07;4.57;;;14.30;99.90;;;;;;4919062;29;20044;-72
2020/12/15 12:10:13;;;;;;;19.80;10.07;;;14.30;99.90;;;;;;4918882;29;20112;-70
2020/12/15 12:12:40;;;;;;;14.05;4.63;;;14.30;99.90;;;;;;4918716;29;20040;-69
2020/12/15 12:15:07;;;;;;;13.02;4.00;;;14.10;99.90;;;;;;4918512;29;20024;-69
2020/12/15 12:17:32;;;;;;;10.57;4.28;;;14.20;99.90;;;;;;4918840;29;20057;-73
2020/12/15 12:19:58;;;;;;;11.25;3.90;;;14.20;99.90;;;;;;4919007;29;20028;-69
2020/12/15 12:22:24;;;;;;;13.13;6.43;;;14.80;99.90;;;;;;4918987;29;20495;-71
2020/12/15 12:24:50;;;;;;;13.98;4.22;;;15.20;99.90;;;;;;4918737;29;20025;-71
2020/12/15 12:27:15;;;;;;;10.13;3.60;;;15.40;99.90;;;;;;4918552;29;20036;-72
2020/12/15 12:29:41;;;;;;;8.82;2.78;;;15.60;99.90;;;;;;4918420;29;20048;-72
2020/12/15 12:32:07;;;;;;;9.48;2.78;;;15.60;99.90;;;;;;4918471;29;20412;-72
2020/12/15 12:34:33;;;;;;;16.50;7.72;;;15.50;99.90;;;;;;4918625;29;20103;-72
2020/12/15 12:36:59;;;;;;;13.57;2.83;;;15.50;99.90;;;;;;4918291;29;20028;-71
2020/12/15 12:39:25;;;;;;;11.15;2.80;;;15.70;99.90;;;;;;4918231;29;20036;-70
2020/12/15 12:41:52;;;;;;;14.55;2.78;;;15.90;99.90;;;;;;4918547;29;20024;-71
2020/12/15 12:44:22;;;;;;;11.70;2.78;;;15.90;99.90;;;;;;4918326;29;20030;-71
2020/12/15 12:50:09;;;;;;;12.07;2.92;;;15.60;99.90;;;;;;4918312;29;20139;-70
2020/12/15 12:52:35;;;;;;;9.05;2.38;;;15.60;99.90;;;;;;4918315;29;20028;-71
2020/12/15 12:55:01;;;;;;;13.85;4.25;;;15.60;99.90;;;;;;4917704;29;20028;-71
2020/12/15 12:57:26;;;;;;;8.73;2.08;;;15.90;99.90;;;;;;4918307;29;20075;-72
2020/12/15 12:59:52;;;;;;;10.98;2.67;;;15.80;99.90;;;;;;4917749;29;20552;-71
2020/12/15 13:05:39;;;;;;;10.20;2.67;;;16.30;99.90;;;;;;4918539;29;20031;-69
2020/12/15 13:08:05;;;;;;;10.38;3.40;;;16.60;99.90;;;;;;4918216;29;20040;-70
2020/12/15 13:10:30;;;;;;;13.70;6.57;;;16.10;99.90;;;;;;4918582;29;20111;-70
2020/12/15 13:12:56;;;;;;;11.60;3.40;;;14.90;99.90;;;;;;4918106;29;20028;-69
2020/12/15 13:15:24;;;;;;;14.25;3.20;;;14.90;99.90;;;;;;4917963;29;20024;-70
2020/12/15 13:17:50;;;;;;;12.80;3.00;;;15.00;99.90;;;;;;4918112;29;20056;-71
2020/12/15 13:20:16;;;;;;;9.80;2.42;;;15.10;99.90;;;;;;4917766;29;20075;-72
2020/12/15 13:22:42;;;;;;;13.10;2.90;;;15.10;99.90;;;;;;4917679;29;20032;-68
2020/12/15 13:25:11;;;;;;;9.13;2.40;;;14.70;99.90;;;;;;4917947;29;20103;-70
2020/12/15 13:27:38;;;;;;;9.57;2.53;;;14.80;99.90;;;;;;4916968;29;20048;-72
2020/12/15 13:30:04;;;;;;;16.73;2.42;;;14.80;99.90;;;;;;4917423;29;20079;-72
2020/12/15 13:35:51;;;;;;;14.75;2.63;;;14.20;99.90;;;;;;4917562;29;20499;-71
2020/12/15 13:38:18;;;;;;;11.68;2.72;;;13.90;99.90;;;;;;4917251;29;20055;-72
2020/12/15 13:40:43;;;;;;;16.27;3.47;;;13.90;99.90;;;;;;4917535;29;20190;-72
2020/12/15 13:43:09;;;;;;;10.80;2.53;;;14.00;99.90;;;;;;4917340;29;20563;-72
2020/12/15 13:45:35;;;;;;;13.45;2.83;;;14.30;99.90;;;;;;4917117;29;20107;-73
2020/12/15 13:48:00;;;;;;;14.38;3.03;;;14.40;99.90;;;;;;4917406;29;20131;-71
2020/12/15 13:50:26;;;;;;;13.32;3.08;;;14.70;99.90;;;;;;4917451;29;20103;-72
2020/12/15 13:52:52;;;;;;;12.27;2.75;;;14.90;99.90;;;;;;4917134;29;20043;-72
2020/12/15 13:55:17;;;;;;;13.68;2.78;;;14.60;99.90;;;;;;4915310;29;20039;-72
2020/12/15 13:57:43;;;;;;;12.73;2.90;;;14.50;99.90;;;;;;4915343;29;20040;-71
2020/12/15 14:00:09;;;;;;;10.02;2.42;;;14.40;99.90;;;;;;4917398;29;20028;-71
2020/12/15 14:05:56;;;;;;;13.68;3.15;;;14.10;99.90;;;;;;4917317;29;20456;-69
2020/12/15 14:08:22;;;;;;;12.00;2.85;;;14.30;99.90;;;;;;4917036;29;20028;-70
2020/12/15 14:10:47;;;;;;;14.90;3.08;;;14.10;99.90;;;;;;4917187;29;20025;-71
2020/12/15 14:13:13;;;;;;;17.77;2.92;;;14.00;99.90;;;;;;4916278;29;20032;-69
2020/12/15 14:15:42;;;;;;;10.23;2.70;;;14.00;99.90;;;;;;4917197;29;20028;-68
2020/12/15 14:18:08;;;;;;;12.93;3.30;;;14.30;99.90;;;;;;4916824;29;20039;-68
2020/12/15 14:20:34;;;;;;;10.57;2.60;;;14.50;99.90;;;;;;4916936;29;20532;-70
2020/12/15 14:22:59;;;;;;;15.70;3.25;;;14.40;99.90;;;;;;4917148;29;20028;-71
2020/12/15 14:25:25;;;;;;;14.77;3.20;;;14.70;99.90;;;;;;4916937;29;20021;-71
2020/12/15 14:27:50;;;;;;;14.07;2.78;;;15.10;99.90;;;;;;4916968;29;20044;-70
2020/12/15 14:30:16;;;;;;;13.15;2.72;;;15.00;99.90;;;;;;4916473;29;20066;-70
2020/12/15 14:36:06;;;;;;;15.30;2.85;;;14.90;99.90;;;;;;4916694;29;20071;-70
2020/12/15 14:38:31;;;;;;;14.23;2.90;;;15.20;99.90;;;;;;4916880;29;20029;-71
2020/12/15 14:40:57;;;;;;;12.52;2.65;;;14.80;99.90;;;;;;4916410;29;20404;-71
2020/12/15 14:43:23;;;;;;;14.95;2.75;;;15.00;99.90;;;;;;4916420;29;20024;-71
2020/12/15 14:45:48;;;;;;;13.18;3.15;;;15.00;99.90;;;;;;4916269;29;20036;-71
2020/12/15 14:48:14;;;;;;;15.38;2.45;;;15.30;99.90;;;;;;4916246;29;20047;-70
2020/12/15 14:50:40;;;;;;;16.75;2.85;;;15.10;99.90;;;;;;4916583;29;20029;-70
2020/12/15 14:53:05;;;;;;;10.80;2.63;;;14.90;99.90;;;;;;4916550;29;20109;-70
2020/12/15 14:55:31;;;;;;;15.18;4.07;;;14.80;99.90;;;;;;4916629;29;20028;-70
2020/12/15 14:57:56;;;;;;;19.98;7.57;;;14.20;99.90;;;;;;4916467;29;20028;-70
2020/12/15 15:00:22;;;;;;;26.50;10.95;;;14.10;99.90;;;;;;4916520;29;20031;-70
2020/12/15 15:06:10;;;;;;;14.95;3.83;;;13.70;99.90;;;;;;4916460;29;20079;-70
2020/12/15 15:08:37;;;;;;;15.45;3.45;;;13.60;99.90;;;;;;4916224;29;20111;-70
2020/12/15 15:11:03;;;;;;;18.77;4.25;;;13.50;99.90;;;;;;4916240;29;20035;-69
2020/12/15 15:13:29;;;;;;;14.50;3.13;;;13.40;99.90;;;;;;4899256;29;20050;-69
2020/12/15 15:15:55;;;;;;;14.18;3.47;;;13.60;99.90;;;;;;4916311;29;20083;-70
2020/12/15 15:21:43;;;;;;;15.82;3.47;;;13.50;99.90;;;;;;4916623;29;20392;-69
2020/12/15 15:24:08;;;;;;;15.82;4.15;;;12.90;99.90;;;;;;4918581;29;20032;-70
2020/12/15 15:26:35;;;;;;;23.75;4.13;;;13.00;99.90;;;;;;4919005;29;20091;-70
2020/12/15 15:29:01;;;;;;;16.95;3.63;;;12.80;99.90;;;;;;4919271;29;20190;-70
2020/12/15 15:31:26;;;;;;;22.77;4.07;;;12.70;99.90;;;;;;4919302;29;20039;-70
2020/12/15 15:33:52;;;;;;;16.73;4.05;;;12.60;99.90;;;;;;4919406;29;20055;-71
2020/12/15 15:36:19;;;;;;;17.40;3.42;;;12.40;99.90;;;;;;4919147;29;20028;-70
2020/12/15 15:38:45;;;;;;;18.05;4.03;;;12.30;99.90;;;;;;4919301;29;20029;-70
2020/12/15 15:41:10;;;;;;;19.25;4.53;;;12.10;99.90;;;;;;4918898;29;20028;-69
2020/12/15 15:43:36;;;;;;;18.83;4.53;;;12.00;99.90;;;;;;4918966;29;20083;-70
2020/12/15 15:46:03;;;;;;;16.77;3.72;;;11.90;99.90;;;;;;4919236;29;20035;-70
2020/12/15 15:51:50;;;;;;;19.95;4.55;;;11.60;99.90;;;;;;4918988;29;20128;-70
2020/12/15 15:54:16;;;;;;;20.92;4.88;;;11.40;99.90;;;;;;4918898;29;20037;-70
2020/12/15 15:56:41;;;;;;;18.42;5.18;;;11.20;99.90;;;;;;4919074;29;20040;-70
2020/12/15 15:59:07;;;;;;;22.45;6.05;;;11.10;99.90;;;;;;4918681;29;20055;-71
2020/12/15 16:01:33;;;;;;;19.85;5.65;;;12.90;99.90;;;;;;4918676;29;20032;-68
2020/12/15 16:03:59;;;;;;;23.05;5.15;;;11.80;99.90;;;;;;4918559;29;20031;-70
2020/12/15 16:06:24;;;;;;;19.27;4.97;;;11.30;99.90;;;;;;4918505;29;20444;-70
2020/12/15 16:08:50;;;;;;;22.27;5.18;;;10.90;99.90;;;;;;4918614;29;20024;-73
2020/12/15 16:11:16;;;;;;;21.20;5.45;;;10.80;99.90;;;;;;4918487;29;20024;-71
2020/12/15 16:13:42;;;;;;;30.13;6.05;;;10.60;99.90;;;;;;4918857;29;20114;-72
2020/12/15 16:16:08;;;;;;;16.95;4.93;;;10.60;99.90;;;;;;4918584;29;20083;-70
2020/12/15 16:21:56;;;;;;;20.08;5.55;;;10.30;99.90;;;;;;4918567;29;20043;-70
2020/12/15 16:24:21;;;;;;;19.92;6.57;;;10.20;99.90;;;;;;4918345;29;20032;-70
2020/12/15 16:26:51;;;;;;;28.33;8.10;;;10.00;99.90;;;;;;4918036;29;20040;-71
2020/12/15 16:29:18;;;;;;;19.67;7.05;;;9.90;99.90;;;;;;4918097;29;20052;-70
2020/12/15 16:31:47;;;;;;;24.90;7.05;;;9.80;99.90;;;;;;4918364;29;20159;-70
2020/12/15 16:34:13;;;;;;;26.42;6.30;;;9.80;99.90;;;;;;4918227;29;20393;-74
2020/12/15 16:36:39;;;;;;;25.27;7.20;;;9.70;99.90;;;;;;4917414;29;20020;-70
2020/12/15 16:39:05;;;;;;;20.00;6.38;;;9.70;99.90;;;;;;4918016;29;20047;-70
2020/12/15 16:41:31;;;;;;;19.20;6.07;;;9.70;99.90;;;;;;4918145;29;20039;-71
2020/12/15 16:43:56;;;;;;;25.27;6.97;;;9.70;99.90;;;;;;4917781;29;20395;-70
2020/12/15 16:46:22;;;;;;;25.80;6.82;;;9.70;99.90;;;;;;4917796;29;20028;-71
2020/12/15 16:52:09;;;;;;;27.85;6.85;;;9.50;99.90;;;;;;4917929;29;20520;-73
2020/12/15 16:54:35;;;;;;;27.67;7.60;;;9.70;99.90;;;;;;4917789;29;20028;-73
2020/12/15 16:57:02;;;;;;;26.88;7.53;;;9.70;99.90;;;;;;4918146;29;20032;-72
2020/12/15 16:59:27;;;;;;;26.90;7.30;;;9.50;99.90;;;;;;4917822;29;20047;-76
2020/12/15 17:01:53;;;;;;;20.13;6.88;;;9.60;99.90;;;;;;4917833;29;20143;-71
2020/12/15 17:04:19;;;;;;;18.95;6.65;;;9.50;99.90;;;;;;4917486;29;20079;-74
2020/12/15 17:06:44;;;;;;;26.85;7.28;;;9.50;99.90;;;;;;4917511;29;20171;-72
2020/12/15 17:09:10;;;;;;;25.15;7.57;;;9.40;99.90;;;;;;4917446;29;20056;-73
2020/12/15 17:11:36;;;;;;;24.48;8.98;;;9.50;99.90;;;;;;4917845;29;20024;-74
2020/12/15 17:14:01;;;;;;;26.40;8.57;;;9.40;99.90;;;;;;4917536;29;20028;-73
2020/12/15 17:16:27;;;;;;;24.67;9.32;;;9.40;99.90;;;;;;4917759;29;20032;-68
2020/12/15 17:22:15;;;;;;;27.27;9.05;;;9.20;99.90;;;;;;4917678;29;20070;-75
2020/12/15 17:24:40;;;;;;;22.45;9.13;;;9.00;99.90;;;;;;4917583;29;20056;-73
2020/12/15 17:27:06;;;;;;;30.73;9.60;;;8.90;99.90;;;;;;4918204;29;20093;-74
2020/12/15 17:29:31;;;;;;;29.42;10.45;;;8.80;99.90;;;;;;4917757;29;20048;-74
2020/12/15 17:31:57;;;;;;;28.48;9.50;;;9.20;99.90;;;;;;4917571;29;20079;-74
2020/12/15 17:37:44;;;;;;;24.40;9.50;;;9.50;99.90;;;;;;4917961;29;20051;-73
2020/12/15 17:40:10;;;;;;;26.92;9.40;;;9.60;99.90;;;;;;4917377;29;20027;-74
2020/12/15 17:42:35;;;;;;;23.20;9.00;;;9.60;99.90;;;;;;4917271;29;20063;-73
2020/12/15 17:45:01;;;;;;;24.80;9.07;;;9.60;99.90;;;;;;4917593;29;20536;-73
2020/12/15 17:47:27;;;;;;;17.10;8.40;;;9.70;99.90;;;;;;4916784;29;20092;-71
2020/12/15 17:49:53;;;;;;;20.70;9.38;;;9.70;99.90;;;;;;4917698;29;20047;-71
2020/12/15 17:52:19;;;;;;;23.08;10.07;;;9.70;99.90;;;;;;4917045;29;20473;-72
2020/12/15 17:54:44;;;;;;;22.02;10.27;;;9.70;99.90;;;;;;4917327;29;20032;-72
2020/12/15 17:57:10;;;;;;;25.30;10.50;;;9.70;99.90;;;;;;4916947;29;20465;-73
2020/12/15 17:59:36;;;;;;;21.90;8.90;;;9.70;99.90;;;;;;4916937;29;20032;-73
2020/12/15 18:02:02;;;;;;;20.13;8.57;;;9.80;99.90;;;;;;4916877;29;20032;-72
2020/12/15 18:07:49;;;;;;;18.77;8.32;;;9.80;99.90;;;;;;4917427;29;20087;-72
2020/12/15 18:10:15;;;;;;;17.40;8.10;;;9.80;99.90;;;;;;4917202;29;20074;-71
2020/12/15 18:12:40;;;;;;;19.95;7.65;;;9.90;99.90;;;;;;4916982;29;20436;-69
2020/12/15 18:15:06;;;;;;;18.77;7.72;;;9.90;99.90;;;;;;4917029;29;20402;-71
2020/12/15 18:17:32;;;;;;;19.38;8.25;;;9.90;99.90;;;;;;4916854;29;20459;-70
2020/12/15 18:19:57;;;;;;;21.33;8.15;;;9.90;99.90;;;;;;4916665;29;20057;-71
2020/12/15 18:22:23;;;;;;;18.90;8.10;;;9.90;99.90;;;;;;4916736;29;20103;-72
2020/12/15 18:24:49;;;;;;;18.85;7.88;;;9.90;99.90;;;;;;4916634;29;20028;-70
2020/12/15 18:27:14;;;;;;;17.52;7.82;;;9.90;99.90;;;;;;4916650;29;20036;-70
2020/12/15 18:29:40;;;;;;;20.60;8.73;;;9.90;99.90;;;;;;4916616;29;20099;-71
2020/12/15 18:32:05;;;;;;;16.05;8.38;;;9.90;99.90;;;;;;4916493;29;20403;-74
2020/12/15 18:37:55;;;;;;;22.77;8.27;;;9.90;99.90;;;;;;4916585;29;20047;-71
2020/12/15 18:40:21;;;;;;;16.52;7.65;;;9.90;99.90;;;;;;4916555;29;20051;-73
2020/12/15 18:42:47;;;;;;;18.23;9.25;;;9.90;99.90;;;;;;4916514;29;20468;-74
2020/12/15 18:45:14;;;;;;;20.05;9.52;;;9.80;99.90;;;;;;4916328;29;20443;-73
2020/12/15 18:54:04;;;;;;;24.13;9.93;;;9.80;99.90;;;;;;4916478;29;20510;-72
2020/12/15 18:56:30;;;;;;;23.63;11.80;;;9.70;99.90;;;;;;4916168;29;20028;-76
2020/12/15 18:58:56;;;;;;;22.85;13.05;;;9.80;99.90;;;;;;4915880;29;20111;-74
2020/12/15 19:01:30;;;;;;;24.70;14.13;;;9.80;99.90;;;;;;4916436;29;20111;-75
2020/12/15 19:03:56;;;;;;;24.83;12.68;;;9.70;99.90;;;;;;4915837;29;20036;-73
2020/12/15 19:06:25;;;;;;;20.08;10.98;;;9.70;99.90;;;;;;4916389;29;20128;-76
2020/12/15 19:08:52;;;;;;;16.92;10.55;;;9.70;99.90;;;;;;4899668;29;20056;-73
2020/12/15 19:11:18;;;;;;;18.55;9.82;;;9.70;99.90;;;;;;4916536;29;20520;-74
2020/12/15 19:13:43;;;;;;;19.25;8.80;;;9.70;99.90;;;;;;4916388;29;20115;-74
2020/12/15 19:16:09;;;;;;;18.23;9.38;;;9.80;99.90;;;;;;4916354;29;20035;-73
2020/12/15 19:18:35;;;;;;;21.02;10.20;;;9.70;99.90;;;;;;4916296;29;20469;-73
2020/12/15 19:21:00;;;;;;;18.67;9.05;;;9.70;99.90;;;;;;4915929;29;20047;-79
2020/12/15 19:23:26;;;;;;;20.38;9.88;;;9.70;99.90;;;;;;4915951;29;20370;-77
2020/12/15 19:25:52;;;;;;;19.20;9.50;;;9.70;99.90;;;;;;4916245;29;20083;-75
2020/12/15 19:28:17;;;;;;;17.63;9.20;;;9.70;99.90;;;;;;4915561;29;20441;-69
2020/12/15 19:30:46;;;;;;;26.33;11.93;;;9.70;99.90;;;;;;4915086;29;20485;-67
2020/12/15 19:33:12;;;;;;;25.02;14.60;;;9.70;99.90;;;;;;4915361;29;20166;-70
2020/12/15 19:35:38;;;;;;;26.58;14.00;;;9.70;99.90;;;;;;4915722;29;20025;-69
2020/12/15 19:38:05;;;;;;;20.98;12.10;;;9.70;99.90;;;;;;4915355;29;20115;-69
2020/12/15 19:40:31;;;;;;;20.77;12.43;;;9.70;99.90;;;;;;4916128;29;20024;-70
2020/12/15 19:42:56;;;;;;;21.25;12.10;;;9.70;99.90;;;;;;4898888;29;20524;-69
2020/12/15 19:45:22;;;;;;;18.60;11.00;;;9.60;99.90;;;;;;4915715;29;20031;-68
2020/12/15 19:47:51;;;;;;;20.05;10.98;;;9.60;99.90;;;;;;4915674;29;20123;-69
2020/12/15 19:53:40;;;;;;;17.30;11.55;;;9.50;99.90;;;;;;4915606;29;20039;-67
2020/12/15 19:56:05;;;;;;;20.95;11.52;;;9.40;99.90;;;;;;4915857;29;20108;-69
2020/12/15 19:58:31;;;;;;;22.70;12.82;;;9.40;99.90;;;;;;4916186;29;20055;-67
2020/12/15 20:00:58;;;;;;;23.15;13.50;;;9.40;99.90;;;;;;4916047;29;20028;-70
2020/12/15 20:03:23;;;;;;;24.63;13.25;;;9.40;99.90;;;;;;4915589;29;20473;-68
2020/12/15 20:05:49;;;;;;;21.48;11.68;;;9.40;99.90;;;;;;4915854;29;20079;-69
2020/12/15 20:08:15;;;;;;;18.52;10.57;;;9.30;99.90;;;;;;4915607;29;20048;-68
2020/12/15 20:10:40;;;;;;;36.17;25.17;;;9.30;99.90;;;;;;4917212;29;20024;-69
2020/12/15 20:13:06;;;;;;;30.88;20.60;;;9.20;99.90;;;;;;4919724;29;20032;-68
2020/12/15 20:15:32;;;;;;;25.17;15.20;;;9.20;99.90;;;;;;4918947;29;20504;-73
2020/12/15 20:17:57;;;;;;;23.02;13.43;;;9.20;99.90;;;;;;4918852;29;20051;-69
2020/12/15 20:23:46;;;;;;;17.30;10.73;;;9.10;99.90;;;;;;4919056;29;20433;-66
2020/12/15 20:26:12;;;;;;;19.55;12.07;;;9.10;99.90;;;;;;4918716;29;20029;-67
2020/12/15 20:28:40;;;;;;;20.58;13.20;;;9.10;99.90;;;;;;4918569;29;20044;-66
2020/12/15 20:31:06;;;;;;;23.92;14.98;;;9.00;99.90;;;;;;4898561;29;20054;-67
2020/12/15 20:33:32;;;;;;;23.05;14.50;;;9.00;99.90;;;;;;4900207;29;20040;-67
2020/12/15 20:39:19;;;;;;;25.67;17.42;;;9.00;99.90;;;;;;4899576;29;20031;-68
2020/12/15 20:41:45;;;;;;;31.77;20.50;;;9.00;99.90;;;;;;4899069;29;20025;-67
2020/12/15 20:44:11;;;;;;;38.85;26.83;;;9.00;99.90;;;;;;4899095;29;20024;-66
2020/12/15 20:46:37;;;;;;;36.17;22.08;;;8.90;99.90;;;;;;4899562;29;20041;-67
2020/12/15 20:49:04;;;;;;;32.58;19.20;;;8.90;99.90;;;;;;4899417;29;20033;-68
2020/12/15 20:51:30;;;;;;;29.23;19.05;;;8.90;99.90;;;;;;4899707;29;20036;-68
2020/12/15 20:53:56;;;;;;;25.67;16.95;;;8.90;99.90;;;;;;4899598;29;20052;-68
2020/12/15 20:56:23;;;;;;;26.60;16.67;;;9.00;99.90;;;;;;4899487;29;20417;-71
2020/12/15 20:58:49;;;;;;;25.50;15.45;;;9.00;99.90;;;;;;4898770;29;20036;-69
2020/12/15 21:01:19;;;;;;;28.10;14.75;;;9.00;99.90;;;;;;4899526;29;20029;-68
2020/12/15 21:03:46;;;;;;;21.88;13.25;;;9.00;99.90;;;;;;4899044;29;20053;-68
2020/12/15 21:09:33;;;;;;;20.63;11.93;;;9.00;99.90;;;;;;4899565;29;20060;-68
2020/12/15 21:12:07;;;;;;;19.27;12.25;;;9.00;99.90;;;;;;4899186;29;20384;-69
2020/12/15 21:14:32;;;;;;;19.02;10.70;;;9.00;99.90;;;;;;4899214;29;20373;-70
2020/12/15 21:16:58;;;;;;;18.20;10.40;;;9.00;99.90;;;;;;4899189;29;20033;-69
2020/12/15 21:19:23;;;;;;;18.27;10.82;;;9.00;99.90;;;;;;4899051;29;20036;-66
2020/12/15 21:21:52;;;;;;;19.77;10.98;;;9.00;99.90;;;;;;4898745;29;20032;-69
2020/12/15 21:24:18;;;;;;;16.02;10.75;;;9.00;99.90;;;;;;4899161;29;20032;-66
2020/12/15 21:26:44;;;;;;;17.38;10.80;;;8.90;99.90;;;;;;4898633;29;20104;-67
2020/12/15 21:29:10;;;;;;;18.35;10.93;;;8.90;99.90;;;;;;4899482;29;20033;-68
2020/12/15 21:31:35;;;;;;;20.45;11.68;;;8.90;99.90;;;;;;4917338;29;20067;-68
2020/12/15 21:34:04;;;;;;;24.33;12.23;;;8.90;99.90;;;;;;4917203;29;20514;-67
2020/12/15 21:39:51;;;;;;;19.95;11.45;;;8.90;99.90;;;;;;4917497;29;20092;-69
2020/12/15 21:42:17;;;;;;;16.83;10.48;;;8.90;99.90;;;;;;4917263;29;20036;-70